sensor_id;sensor_type;location;lat;lon;timestamp;temperature;humidity
58161;DHT22;49345;47.428;9.892;2022-08-19T00:01:31;17.60;99.90
58161;DHT22;49345;47.428;9.892;2022-08-19T00:03:57;17.60;99.90
58161;DHT22;49345;47.428;9.892;2022-08-19T00:06:24;17.60;99.90
58161;DHT22;49345;47.428;9.892;2022-08-19T00:08:49;17.60;99.90
58161;DHT22;49345;47.428;9.892;2022-08-19T00:11:16;17.60;99.90
58161;DHT22;49345;47.428;9.892;2022-08-19T00:13:42;17.60;99.90
58161;DHT22;49345;47.428;9.892;2022-08-19T00:16:08;17.60;99.90
58161;DHT22;49345;47.428;9.892;2022-08-19T00:18:33;17.60;99.90
58161;DHT22;49345;47.428;9.892;2022-08-19T00:20:59;17.60;99.90
58161;DHT22;49345;47.428;9.892;2022-08-19T00:23:25;17.60;99.90
58161;DHT22;49345;47.428;9.892;2022-08-19T00:25:51;17.70;99.90
58161;DHT22;49345;47.428;9.892;2022-08-19T00:28:17;17.70;99.90
58161;DHT22;49345;47.428;9.892;2022-08-19T00:30:43;17.70;99.90
58161;DHT22;49345;47.428;9.892;2022-08-19T00:33:09;17.70;99.90
58161;DHT22;49345;47.428;9.892;2022-08-19T00:35:34;17.60;99.90
58161;DHT22;49345;47.428;9.892;2022-08-19T00:38:00;17.60;99.90
58161;DHT22;49345;47.428;9.892;2022-08-19T00:40:26;17.60;99.90
58161;DHT22;49345;47.428;9.892;2022-08-19T00:42:51;17.60;99.90
58161;DHT22;49345;47.428;9.892;2022-08-19T00:45:20;17.60;99.90
58161;DHT22;49345;47.428;9.892;2022-08-19T00:47:46;17.60;99.90
58161;DHT22;49345;47.428;9.892;2022-08-19T00:50:13;17.60;99.90
58161;DHT22;49345;47.428;9.892;2022-08-19T00:52:41;17.60;99.90
58161;DHT22;49345;47.428;9.892;2022-08-19T00:55:12;17.60;99.90
58161;DHT22;49345;47.428;9.892;2022-08-19T00:57:40;17.50;99.90
58161;DHT22;49345;47.428;9.892;2022-08-19T01:00:09;17.50;99.90
58161;DHT22;49345;47.428;9.892;2022-08-19T01:02:36;17.50;99.90
58161;DHT22;49345;47.428;9.892;2022-08-19T01:05:05;17.50;99.90
58161;DHT22;49345;47.428;9.892;2022-08-19T01:07:32;17.50;99.90
58161;DHT22;49345;47.428;9.892;2022-08-19T01:09:57;17.50;99.90
58161;DHT22;49345;47.428;9.892;2022-08-19T01:12:24;17.50;99.90
58161;DHT22;49345;47.428;9.892;2022-08-19T01:14:50;17.50;99.90
58161;DHT22;49345;47.428;9.892;2022-08-19T01:17:17;17.60;99.90
58161;DHT22;49345;47.428;9.892;2022-08-19T01:19:43;17.60;99.90
58161;DHT22;49345;47.428;9.892;2022-08-19T01:22:12;17.60;99.90
58161;DHT22;49345;47.428;9.892;2022-08-19T01:24:40;17.60;99.90
58161;DHT22;49345;47.428;9.892;2022-08-19T01:27:05;17.60;99.90
58161;DHT22;49345;47.428;9.892;2022-08-19T01:29:31;17.60;99.90
58161;DHT22;49345;47.428;9.892;2022-08-19T01:31:57;17.60;99.90
58161;DHT22;49345;47.428;9.892;2022-08-19T01:34:22;17.60;99.90
58161;DHT22;49345;47.428;9.892;2022-08-19T01:36:48;17.60;99.90
58161;DHT22;49345;47.428;9.892;2022-08-19T01:39:16;17.60;99.90
58161;DHT22;49345;47.428;9.892;2022-08-19T01:41:42;17.70;99.90
58161;DHT22;49345;47.428;9.892;2022-08-19T01:44:08;17.70;99.90
58161;DHT22;49345;47.428;9.892;2022-08-19T01:46:34;17.60;99.90
58161;DHT22;49345;47.428;9.892;2022-08-19T01:48:59;17.60;99.90
58161;DHT22;49345;47.428;9.892;2022-08-19T01:51:25;17.60;99.90
58161;DHT22;49345;47.428;9.892;2022-08-19T01:53:51;17.60;99.90
58161;DHT22;49345;47.428;9.892;2022-08-19T01:56:17;17.60;99.90
58161;DHT22;49345;47.428;9.892;2022-08-19T01:58:45;17.60;99.90
58161;DHT22;49345;47.428;9.892;2022-08-19T02:01:12;17.60;99.90
58161;DHT22;49345;47.428;9.892;2022-08-19T02:03:39;17.70;99.90
58161;DHT22;49345;47.428;9.892;2022-08-19T02:06:04;17.70;99.90
58161;DHT22;49345;47.428;9.892;2022-08-19T02:08:31;17.70;99.90
58161;DHT22;49345;47.428;9.892;2022-08-19T02:10:57;17.70;99.90
58161;DHT22;49345;47.428;9.892;2022-08-19T02:13:23;17.70;99.90
58161;DHT22;49345;47.428;9.892;2022-08-19T02:15:49;17.70;99.90
58161;DHT22;49345;47.428;9.892;2022-08-19T02:18:15;17.60;99.90
58161;DHT22;49345;47.428;9.892;2022-08-19T02:20:41;17.60;99.90
58161;DHT22;49345;47.428;9.892;2022-08-19T02:23:07;17.60;99.90
58161;DHT22;49345;47.428;9.892;2022-08-19T02:25:33;17.60;99.90
58161;DHT22;49345;47.428;9.892;2022-08-19T02:27:58;17.60;99.90
58161;DHT22;49345;47.428;9.892;2022-08-19T02:30:24;17.60;99.90
58161;DHT22;49345;47.428;9.892;2022-08-19T02:32:50;17.60;99.90
58161;DHT22;49345;47.428;9.892;2022-08-19T02:35:16;17.60;99.90
58161;DHT22;49345;47.428;9.892;2022-08-19T02:37:42;17.50;99.90
58161;DHT22;49345;47.428;9.892;2022-08-19T02:40:52;17.50;99.90
58161;DHT22;49345;47.428;9.892;2022-08-19T02:43:18;17.50;99.90
58161;DHT22;49345;47.428;9.892;2022-08-19T02:45:45;17.50;99.90
58161;DHT22;49345;47.428;9.892;2022-08-19T02:48:11;17.50;99.90
58161;DHT22;49345;47.428;9.892;2022-08-19T02:50:37;17.50;99.90
58161;DHT22;49345;47.428;9.892;2022-08-19T02:53:03;17.40;99.90
58161;DHT22;49345;47.428;9.892;2022-08-19T02:55:28;17.50;99.90
58161;DHT22;49345;47.428;9.892;2022-08-19T02:57:54;17.50;99.90
58161;DHT22;49345;47.428;9.892;2022-08-19T03:00:20;17.50;99.90
58161;DHT22;49345;47.428;9.892;2022-08-19T03:02:46;17.40;99.90
58161;DHT22;49345;47.428;9.892;2022-08-19T03:05:12;17.40;99.90
58161;DHT22;49345;47.428;9.892;2022-08-19T03:07:38;17.40;99.90
58161;DHT22;49345;47.428;9.892;2022-08-19T03:10:04;17.50;99.90
58161;DHT22;49345;47.428;9.892;2022-08-19T03:12:29;17.50;99.90
58161;DHT22;49345;47.428;9.892;2022-08-19T03:14:55;17.50;99.90
58161;DHT22;49345;47.428;9.892;2022-08-19T03:17:21;17.50;99.90
58161;DHT22;49345;47.428;9.892;2022-08-19T03:19:46;17.60;99.90
58161;DHT22;49345;47.428;9.892;2022-08-19T03:22:12;17.60;99.90
58161;DHT22;49345;47.428;9.892;2022-08-19T03:24:38;17.60;99.90
58161;DHT22;49345;47.428;9.892;2022-08-19T03:27:03;17.60;99.90
58161;DHT22;49345;47.428;9.892;2022-08-19T03:29:30;17.60;99.90
58161;DHT22;49345;47.428;9.892;2022-08-19T03:31:59;17.50;99.90
58161;DHT22;49345;47.428;9.892;2022-08-19T03:34:27;17.50;99.90
58161;DHT22;49345;47.428;9.892;2022-08-19T03:36:53;17.50;99.90
58161;DHT22;49345;47.428;9.892;2022-08-19T03:39:19;17.50;99.90
58161;DHT22;49345;47.428;9.892;2022-08-19T03:41:46;17.50;99.90
58161;DHT22;49345;47.428;9.892;2022-08-19T03:44:13;17.40;99.90
58161;DHT22;49345;47.428;9.892;2022-08-19T03:46:39;17.40;99.90
58161;DHT22;49345;47.428;9.892;2022-08-19T03:49:04;17.40;99.90
58161;DHT22;49345;47.428;9.892;2022-08-19T03:51:34;17.40;99.90
58161;DHT22;49345;47.428;9.892;2022-08-19T03:54:01;17.50;99.90
58161;DHT22;49345;47.428;9.892;2022-08-19T03:56:27;17.50;99.90
58161;DHT22;49345;47.428;9.892;2022-08-19T03:58:54;17.60;99.90
58161;DHT22;49345;47.428;9.892;2022-08-19T04:01:21;17.60;99.90
58161;DHT22;49345;47.428;9.892;2022-08-19T04:03:47;17.60;99.90
58161;DHT22;49345;47.428;9.892;2022-08-19T04:06:14;17.60;99.90
58161;DHT22;49345;47.428;9.892;2022-08-19T04:08:40;17.60;99.90
58161;DHT22;49345;47.428;9.892;2022-08-19T04:11:07;17.50;99.90
58161;DHT22;49345;47.428;9.892;2022-08-19T04:13:33;17.50;99.90
58161;DHT22;49345;47.428;9.892;2022-08-19T04:15:59;17.50;99.90
58161;DHT22;49345;47.428;9.892;2022-08-19T04:18:24;17.50;99.90
58161;DHT22;49345;47.428;9.892;2022-08-19T04:20:51;17.50;99.90
58161;DHT22;49345;47.428;9.892;2022-08-19T04:23:16;17.50;99.90
58161;DHT22;49345;47.428;9.892;2022-08-19T04:25:43;17.40;99.90
58161;DHT22;49345;47.428;9.892;2022-08-19T04:28:09;17.40;99.90
58161;DHT22;49345;47.428;9.892;2022-08-19T04:30:38;17.40;99.90
58161;DHT22;49345;47.428;9.892;2022-08-19T04:33:04;17.30;99.90
58161;DHT22;49345;47.428;9.892;2022-08-19T04:35:38;17.30;99.90
58161;DHT22;49345;47.428;9.892;2022-08-19T04:38:04;17.30;99.90
58161;DHT22;49345;47.428;9.892;2022-08-19T04:40:30;17.30;99.90
58161;DHT22;49345;47.428;9.892;2022-08-19T04:43:24;17.40;99.90
58161;DHT22;49345;47.428;9.892;2022-08-19T04:45:49;17.40;99.90
58161;DHT22;49345;47.428;9.892;2022-08-19T04:48:19;17.50;99.90
58161;DHT22;49345;47.428;9.892;2022-08-19T04:50:51;17.50;99.90
58161;DHT22;49345;47.428;9.892;2022-08-19T04:53:22;17.50;99.90
58161;DHT22;49345;47.428;9.892;2022-08-19T04:55:47;17.50;99.90
58161;DHT22;49345;47.428;9.892;2022-08-19T04:58:13;17.50;99.90
58161;DHT22;49345;47.428;9.892;2022-08-19T05:00:39;17.50;99.90
58161;DHT22;49345;47.428;9.892;2022-08-19T05:03:05;17.40;99.90
58161;DHT22;49345;47.428;9.892;2022-08-19T05:05:30;17.40;99.90
58161;DHT22;49345;47.428;9.892;2022-08-19T05:07:56;17.50;99.90
58161;DHT22;49345;47.428;9.892;2022-08-19T05:10:21;17.60;99.90
58161;DHT22;49345;47.428;9.892;2022-08-19T05:12:47;17.50;99.90
58161;DHT22;49345;47.428;9.892;2022-08-19T05:15:12;17.50;99.90
58161;DHT22;49345;47.428;9.892;2022-08-19T05:17:38;17.50;99.90
58161;DHT22;49345;47.428;9.892;2022-08-19T05:20:24;17.50;99.90
58161;DHT22;49345;47.428;9.892;2022-08-19T05:23:27;17.50;99.90
58161;DHT22;49345;47.428;9.892;2022-08-19T05:25:52;17.50;99.90
58161;DHT22;49345;47.428;9.892;2022-08-19T05:28:19;17.50;99.90
58161;DHT22;49345;47.428;9.892;2022-08-19T05:30:44;17.50;99.90
58161;DHT22;49345;47.428;9.892;2022-08-19T05:33:10;17.60;99.90
58161;DHT22;49345;47.428;9.892;2022-08-19T05:35:38;17.60;99.90
58161;DHT22;49345;47.428;9.892;2022-08-19T05:38:04;17.60;99.90
58161;DHT22;49345;47.428;9.892;2022-08-19T05:40:33;17.60;99.90
58161;DHT22;49345;47.428;9.892;2022-08-19T05:42:59;17.50;99.90
58161;DHT22;49345;47.428;9.892;2022-08-19T05:45:24;17.50;99.90
58161;DHT22;49345;47.428;9.892;2022-08-19T05:47:50;17.60;99.90
58161;DHT22;49345;47.428;9.892;2022-08-19T05:50:16;17.60;99.90
58161;DHT22;49345;47.428;9.892;2022-08-19T05:52:42;17.50;99.90
58161;DHT22;49345;47.428;9.892;2022-08-19T05:55:08;17.50;99.90
58161;DHT22;49345;47.428;9.892;2022-08-19T05:57:34;17.50;99.90
58161;DHT22;49345;47.428;9.892;2022-08-19T06:00:00;17.60;99.90
58161;DHT22;49345;47.428;9.892;2022-08-19T06:02:28;17.50;99.90
58161;DHT22;49345;47.428;9.892;2022-08-19T06:04:53;17.40;99.90
58161;DHT22;49345;47.428;9.892;2022-08-19T06:07:19;17.40;99.90
58161;DHT22;49345;47.428;9.892;2022-08-19T06:09:44;17.40;99.90
58161;DHT22;49345;47.428;9.892;2022-08-19T06:12:10;17.50;99.90
58161;DHT22;49345;47.428;9.892;2022-08-19T06:14:36;17.50;99.90
58161;DHT22;49345;47.428;9.892;2022-08-19T06:17:02;17.50;99.90
58161;DHT22;49345;47.428;9.892;2022-08-19T06:19:28;17.50;99.90
58161;DHT22;49345;47.428;9.892;2022-08-19T06:21:55;17.60;99.90
58161;DHT22;49345;47.428;9.892;2022-08-19T06:24:23;17.50;99.90
58161;DHT22;49345;47.428;9.892;2022-08-19T06:26:49;17.50;99.90
58161;DHT22;49345;47.428;9.892;2022-08-19T06:29:20;17.60;99.90
58161;DHT22;49345;47.428;9.892;2022-08-19T06:31:47;17.60;99.90
58161;DHT22;49345;47.428;9.892;2022-08-19T06:34:15;17.60;99.90
58161;DHT22;49345;47.428;9.892;2022-08-19T06:36:41;17.70;99.90
58161;DHT22;49345;47.428;9.892;2022-08-19T06:39:10;17.70;99.90
58161;DHT22;49345;47.428;9.892;2022-08-19T06:41:37;17.70;99.90
58161;DHT22;49345;47.428;9.892;2022-08-19T06:44:03;17.60;99.90
58161;DHT22;49345;47.428;9.892;2022-08-19T06:46:29;17.60;99.90
58161;DHT22;49345;47.428;9.892;2022-08-19T06:48:56;17.60;99.90
58161;DHT22;49345;47.428;9.892;2022-08-19T06:51:22;17.70;99.90
58161;DHT22;49345;47.428;9.892;2022-08-19T06:53:49;17.60;99.90
58161;DHT22;49345;47.428;9.892;2022-08-19T06:56:16;17.70;99.90
58161;DHT22;49345;47.428;9.892;2022-08-19T06:58:42;17.70;99.90
58161;DHT22;49345;47.428;9.892;2022-08-19T07:01:07;17.70;99.90
58161;DHT22;49345;47.428;9.892;2022-08-19T07:03:34;17.70;99.90
58161;DHT22;49345;47.428;9.892;2022-08-19T07:06:09;17.70;99.90
58161;DHT22;49345;47.428;9.892;2022-08-19T07:08:35;17.80;99.90
58161;DHT22;49345;47.428;9.892;2022-08-19T07:11:02;17.80;99.90
58161;DHT22;49345;47.428;9.892;2022-08-19T07:13:30;17.80;99.90
58161;DHT22;49345;47.428;9.892;2022-08-19T07:16:05;17.80;99.90
58161;DHT22;49345;47.428;9.892;2022-08-19T07:18:31;17.80;99.90
58161;DHT22;49345;47.428;9.892;2022-08-19T07:21:18;17.90;99.90
58161;DHT22;49345;47.428;9.892;2022-08-19T07:23:45;17.80;99.90
58161;DHT22;49345;47.428;9.892;2022-08-19T07:26:17;17.80;99.90
58161;DHT22;49345;47.428;9.892;2022-08-19T07:28:44;17.90;99.90
58161;DHT22;49345;47.428;9.892;2022-08-19T07:31:11;17.90;99.90
58161;DHT22;49345;47.428;9.892;2022-08-19T07:33:37;18.00;99.90
58161;DHT22;49345;47.428;9.892;2022-08-19T07:36:04;18.00;99.90
58161;DHT22;49345;47.428;9.892;2022-08-19T07:38:30;18.00;99.90
58161;DHT22;49345;47.428;9.892;2022-08-19T07:40:56;18.00;99.90
58161;DHT22;49345;47.428;9.892;2022-08-19T07:43:21;18.00;99.90
58161;DHT22;49345;47.428;9.892;2022-08-19T07:45:51;18.00;99.90
58161;DHT22;49345;47.428;9.892;2022-08-19T07:48:18;18.10;99.90
58161;DHT22;49345;47.428;9.892;2022-08-19T07:50:43;18.10;99.90
58161;DHT22;49345;47.428;9.892;2022-08-19T07:53:09;18.00;99.90
58161;DHT22;49345;47.428;9.892;2022-08-19T07:55:35;18.00;99.90
58161;DHT22;49345;47.428;9.892;2022-08-19T07:58:00;18.00;99.90
58161;DHT22;49345;47.428;9.892;2022-08-19T08:00:26;18.00;99.90
58161;DHT22;49345;47.428;9.892;2022-08-19T08:02:52;18.00;99.90
58161;DHT22;49345;47.428;9.892;2022-08-19T08:05:17;17.90;99.90
58161;DHT22;49345;47.428;9.892;2022-08-19T08:08:12;17.90;99.90
58161;DHT22;49345;47.428;9.892;2022-08-19T08:11:11;17.90;99.90
58161;DHT22;49345;47.428;9.892;2022-08-19T08:13:37;17.90;99.90
58161;DHT22;49345;47.428;9.892;2022-08-19T08:16:03;17.90;99.90
58161;DHT22;49345;47.428;9.892;2022-08-19T08:18:28;17.80;99.90
58161;DHT22;49345;47.428;9.892;2022-08-19T08:20:54;17.70;99.90
58161;DHT22;49345;47.428;9.892;2022-08-19T08:23:20;17.60;99.90
58161;DHT22;49345;47.428;9.892;2022-08-19T08:25:56;17.60;99.90
58161;DHT22;49345;47.428;9.892;2022-08-19T08:28:22;17.60;99.90
58161;DHT22;49345;47.428;9.892;2022-08-19T08:30:48;17.70;99.90
58161;DHT22;49345;47.428;9.892;2022-08-19T08:33:18;17.60;99.90
58161;DHT22;49345;47.428;9.892;2022-08-19T08:35:44;17.70;99.90
58161;DHT22;49345;47.428;9.892;2022-08-19T08:38:10;17.80;99.90
58161;DHT22;49345;47.428;9.892;2022-08-19T08:43:40;17.80;99.90
58161;DHT22;49345;47.428;9.892;2022-08-19T08:46:10;17.70;99.90
58161;DHT22;49345;47.428;9.892;2022-08-19T08:48:46;17.80;99.90
58161;DHT22;49345;47.428;9.892;2022-08-19T08:51:14;17.70;99.90
58161;DHT22;49345;47.428;9.892;2022-08-19T08:53:42;17.70;99.90
58161;DHT22;49345;47.428;9.892;2022-08-19T08:56:10;17.70;99.90
58161;DHT22;49345;47.428;9.892;2022-08-19T08:58:48;17.80;99.90
58161;DHT22;49345;47.428;9.892;2022-08-19T09:01:14;17.90;99.90
58161;DHT22;49345;47.428;9.892;2022-08-19T09:03:41;17.80;99.90
58161;DHT22;49345;47.428;9.892;2022-08-19T09:09:12;17.80;99.90
58161;DHT22;49345;47.428;9.892;2022-08-19T09:17:11;18.00;99.90
58161;DHT22;49345;47.428;9.892;2022-08-19T09:22:31;18.10;99.90
58161;DHT22;49345;47.428;9.892;2022-08-19T09:24:57;18.00;99.90
58161;DHT22;49345;47.428;9.892;2022-08-19T09:27:23;18.10;99.90
58161;DHT22;49345;47.428;9.892;2022-08-19T09:29:49;18.00;99.90
58161;DHT22;49345;47.428;9.892;2022-08-19T09:32:15;18.00;99.90
58161;DHT22;49345;47.428;9.892;2022-08-19T09:34:41;17.90;99.90
58161;DHT22;49345;47.428;9.892;2022-08-19T09:37:06;17.90;99.90
58161;DHT22;49345;47.428;9.892;2022-08-19T09:39:32;17.90;99.90
58161;DHT22;49345;47.428;9.892;2022-08-19T09:41:57;17.90;99.90
58161;DHT22;49345;47.428;9.892;2022-08-19T09:44:23;17.80;99.90
58161;DHT22;49345;47.428;9.892;2022-08-19T09:46:49;17.80;99.90
58161;DHT22;49345;47.428;9.892;2022-08-19T09:49:16;17.80;99.90
58161;DHT22;49345;47.428;9.892;2022-08-19T09:51:42;17.80;99.90
58161;DHT22;49345;47.428;9.892;2022-08-19T09:54:08;17.80;99.90
58161;DHT22;49345;47.428;9.892;2022-08-19T09:56:33;17.80;99.90
58161;DHT22;49345;47.428;9.892;2022-08-19T09:58:59;17.80;99.90
58161;DHT22;49345;47.428;9.892;2022-08-19T10:01:26;17.80;99.90
58161;DHT22;49345;47.428;9.892;2022-08-19T10:03:52;17.70;99.90
58161;DHT22;49345;47.428;9.892;2022-08-19T10:06:19;17.80;99.90
58161;DHT22;49345;47.428;9.892;2022-08-19T10:08:48;17.80;99.90
58161;DHT22;49345;47.428;9.892;2022-08-19T10:11:13;17.80;99.90
58161;DHT22;49345;47.428;9.892;2022-08-19T10:13:41;17.80;99.90
58161;DHT22;49345;47.428;9.892;2022-08-19T10:16:09;17.80;99.90
58161;DHT22;49345;47.428;9.892;2022-08-19T10:18:35;17.80;99.90
58161;DHT22;49345;47.428;9.892;2022-08-19T10:21:02;17.80;99.90
58161;DHT22;49345;47.428;9.892;2022-08-19T10:23:28;17.80;99.90
58161;DHT22;49345;47.428;9.892;2022-08-19T10:25:54;17.80;99.90
58161;DHT22;49345;47.428;9.892;2022-08-19T10:28:24;17.90;99.90
58161;DHT22;49345;47.428;9.892;2022-08-19T10:30:49;18.00;99.90
58161;DHT22;49345;47.428;9.892;2022-08-19T10:33:15;18.10;99.90
58161;DHT22;49345;47.428;9.892;2022-08-19T10:35:41;18.10;99.90
58161;DHT22;49345;47.428;9.892;2022-08-19T10:38:06;18.20;99.90
58161;DHT22;49345;47.428;9.892;2022-08-19T10:40:32;18.20;99.90
58161;DHT22;49345;47.428;9.892;2022-08-19T10:43:00;18.30;99.90
58161;DHT22;49345;47.428;9.892;2022-08-19T10:45:26;18.30;99.90
58161;DHT22;49345;47.428;9.892;2022-08-19T10:47:52;18.30;99.90
58161;DHT22;49345;47.428;9.892;2022-08-19T10:50:18;18.30;99.90
58161;DHT22;49345;47.428;9.892;2022-08-19T10:53:13;18.30;99.90
58161;DHT22;49345;47.428;9.892;2022-08-19T10:55:39;18.30;99.90
58161;DHT22;49345;47.428;9.892;2022-08-19T10:58:42;18.40;99.90
58161;DHT22;49345;47.428;9.892;2022-08-19T11:01:07;18.30;99.90
58161;DHT22;49345;47.428;9.892;2022-08-19T11:03:33;18.40;99.90
58161;DHT22;49345;47.428;9.892;2022-08-19T11:06:00;18.40;99.90
58161;DHT22;49345;47.428;9.892;2022-08-19T11:08:26;18.40;99.90
58161;DHT22;49345;47.428;9.892;2022-08-19T11:10:52;18.40;99.90
58161;DHT22;49345;47.428;9.892;2022-08-19T11:13:22;18.40;99.90
58161;DHT22;49345;47.428;9.892;2022-08-19T11:15:55;18.50;99.90
58161;DHT22;49345;47.428;9.892;2022-08-19T11:18:21;18.40;99.90
58161;DHT22;49345;47.428;9.892;2022-08-19T11:20:46;18.40;99.90
58161;DHT22;49345;47.428;9.892;2022-08-19T11:23:12;18.40;99.90
58161;DHT22;49345;47.428;9.892;2022-08-19T11:25:38;18.40;99.90
58161;DHT22;49345;47.428;9.892;2022-08-19T11:28:04;18.40;99.90
58161;DHT22;49345;47.428;9.892;2022-08-19T11:30:30;18.30;99.90
58161;DHT22;49345;47.428;9.892;2022-08-19T11:32:55;18.20;99.90
58161;DHT22;49345;47.428;9.892;2022-08-19T11:35:21;18.20;99.90
58161;DHT22;49345;47.428;9.892;2022-08-19T11:37:48;18.20;99.90
58161;DHT22;49345;47.428;9.892;2022-08-19T11:40:14;18.10;99.90
58161;DHT22;49345;47.428;9.892;2022-08-19T11:42:39;18.20;99.90
58161;DHT22;49345;47.428;9.892;2022-08-19T11:45:32;18.20;99.90
58161;DHT22;49345;47.428;9.892;2022-08-19T11:47:58;18.30;99.90
58161;DHT22;49345;47.428;9.892;2022-08-19T11:50:23;18.30;99.90
58161;DHT22;49345;47.428;9.892;2022-08-19T11:52:49;18.30;99.90
58161;DHT22;49345;47.428;9.892;2022-08-19T11:55:15;18.10;99.90
58161;DHT22;49345;47.428;9.892;2022-08-19T11:57:41;18.00;99.90
58161;DHT22;49345;47.428;9.892;2022-08-19T12:00:08;18.00;99.90
58161;DHT22;49345;47.428;9.892;2022-08-19T12:02:34;18.10;99.90
58161;DHT22;49345;47.428;9.892;2022-08-19T12:05:00;18.10;99.90
58161;DHT22;49345;47.428;9.892;2022-08-19T12:07:28;18.10;99.90
58161;DHT22;49345;47.428;9.892;2022-08-19T12:09:56;18.10;99.90
58161;DHT22;49345;47.428;9.892;2022-08-19T12:12:22;18.10;99.90
58161;DHT22;49345;47.428;9.892;2022-08-19T12:14:50;18.00;99.90
58161;DHT22;49345;47.428;9.892;2022-08-19T12:17:23;17.90;99.90
58161;DHT22;49345;47.428;9.892;2022-08-19T12:19:49;17.80;99.90
58161;DHT22;49345;47.428;9.892;2022-08-19T12:22:14;17.80;99.90
58161;DHT22;49345;47.428;9.892;2022-08-19T12:24:40;17.70;99.90
58161;DHT22;49345;47.428;9.892;2022-08-19T12:27:05;17.70;99.90
58161;DHT22;49345;47.428;9.892;2022-08-19T12:29:33;17.60;99.90
58161;DHT22;49345;47.428;9.892;2022-08-19T12:31:59;17.60;99.90
58161;DHT22;49345;47.428;9.892;2022-08-19T12:34:27;17.50;99.90
58161;DHT22;49345;47.428;9.892;2022-08-19T12:36:56;17.50;99.90
58161;DHT22;49345;47.428;9.892;2022-08-19T12:39:21;17.50;99.90
58161;DHT22;49345;47.428;9.892;2022-08-19T12:41:47;17.50;99.90
58161;DHT22;49345;47.428;9.892;2022-08-19T12:44:14;17.50;99.90
58161;DHT22;49345;47.428;9.892;2022-08-19T12:46:39;17.40;99.90
58161;DHT22;49345;47.428;9.892;2022-08-19T12:49:05;17.50;99.90
58161;DHT22;49345;47.428;9.892;2022-08-19T12:51:31;17.50;99.90
58161;DHT22;49345;47.428;9.892;2022-08-19T12:53:56;17.50;99.90
58161;DHT22;49345;47.428;9.892;2022-08-19T12:56:22;17.40;99.90
58161;DHT22;49345;47.428;9.892;2022-08-19T12:58:48;17.40;99.90
58161;DHT22;49345;47.428;9.892;2022-08-19T13:01:15;17.50;99.90
58161;DHT22;49345;47.428;9.892;2022-08-19T13:03:41;17.50;99.90
58161;DHT22;49345;47.428;9.892;2022-08-19T13:06:08;17.50;99.90
58161;DHT22;49345;47.428;9.892;2022-08-19T13:08:34;17.50;99.90
58161;DHT22;49345;47.428;9.892;2022-08-19T13:11:08;17.40;99.90
58161;DHT22;49345;47.428;9.892;2022-08-19T13:13:37;17.40;99.90
58161;DHT22;49345;47.428;9.892;2022-08-19T13:16:06;17.30;99.90
58161;DHT22;49345;47.428;9.892;2022-08-19T13:18:32;17.30;99.90
58161;DHT22;49345;47.428;9.892;2022-08-19T13:21:01;17.30;99.90
58161;DHT22;49345;47.428;9.892;2022-08-19T13:23:28;17.30;99.90
58161;DHT22;49345;47.428;9.892;2022-08-19T13:25:58;17.40;99.90
58161;DHT22;49345;47.428;9.892;2022-08-19T13:28:24;17.30;99.90
58161;DHT22;49345;47.428;9.892;2022-08-19T13:30:50;17.40;99.90
58161;DHT22;49345;47.428;9.892;2022-08-19T13:33:46;17.40;99.90
58161;DHT22;49345;47.428;9.892;2022-08-19T13:36:12;17.30;99.90
58161;DHT22;49345;47.428;9.892;2022-08-19T13:38:37;17.30;99.90
58161;DHT22;49345;47.428;9.892;2022-08-19T13:41:05;17.20;99.90
58161;DHT22;49345;47.428;9.892;2022-08-19T13:43:30;17.20;99.90
58161;DHT22;49345;47.428;9.892;2022-08-19T13:45:56;17.00;99.90
58161;DHT22;49345;47.428;9.892;2022-08-19T13:48:22;17.00;99.90
58161;DHT22;49345;47.428;9.892;2022-08-19T13:50:48;16.90;99.90
58161;DHT22;49345;47.428;9.892;2022-08-19T13:53:14;16.90;99.90
58161;DHT22;49345;47.428;9.892;2022-08-19T13:55:41;16.70;99.90
58161;DHT22;49345;47.428;9.892;2022-08-19T13:58:07;16.60;99.90
58161;DHT22;49345;47.428;9.892;2022-08-19T14:00:34;16.70;99.90
58161;DHT22;49345;47.428;9.892;2022-08-19T14:03:00;16.70;99.90
58161;DHT22;49345;47.428;9.892;2022-08-19T14:05:27;16.60;99.90
58161;DHT22;49345;47.428;9.892;2022-08-19T14:07:53;16.60;99.90
58161;DHT22;49345;47.428;9.892;2022-08-19T14:10:19;16.60;99.90
58161;DHT22;49345;47.428;9.892;2022-08-19T14:12:45;16.60;99.90
58161;DHT22;49345;47.428;9.892;2022-08-19T14:15:11;16.50;99.90
58161;DHT22;49345;47.428;9.892;2022-08-19T14:17:38;16.50;99.90
58161;DHT22;49345;47.428;9.892;2022-08-19T14:20:04;16.50;99.90
58161;DHT22;49345;47.428;9.892;2022-08-19T14:22:34;16.60;99.90
58161;DHT22;49345;47.428;9.892;2022-08-19T14:24:59;16.60;99.90
58161;DHT22;49345;47.428;9.892;2022-08-19T14:27:25;16.60;99.90
58161;DHT22;49345;47.428;9.892;2022-08-19T14:29:51;16.60;99.90
58161;DHT22;49345;47.428;9.892;2022-08-19T14:32:17;16.60;99.90
58161;DHT22;49345;47.428;9.892;2022-08-19T14:34:42;16.60;99.90
58161;DHT22;49345;47.428;9.892;2022-08-19T14:37:11;16.50;99.90
58161;DHT22;49345;47.428;9.892;2022-08-19T14:39:39;16.40;99.90
58161;DHT22;49345;47.428;9.892;2022-08-19T14:42:07;16.30;99.90
58161;DHT22;49345;47.428;9.892;2022-08-19T14:44:33;16.40;99.90
58161;DHT22;49345;47.428;9.892;2022-08-19T14:46:59;16.40;99.90
58161;DHT22;49345;47.428;9.892;2022-08-19T14:49:25;16.40;99.90
58161;DHT22;49345;47.428;9.892;2022-08-19T14:51:50;16.30;99.90
58161;DHT22;49345;47.428;9.892;2022-08-19T14:54:16;16.20;99.90
58161;DHT22;49345;47.428;9.892;2022-08-19T14:56:41;16.20;99.90
58161;DHT22;49345;47.428;9.892;2022-08-19T14:59:07;16.30;99.90
58161;DHT22;49345;47.428;9.892;2022-08-19T15:01:32;16.20;99.90
58161;DHT22;49345;47.428;9.892;2022-08-19T15:03:58;16.30;99.90
58161;DHT22;49345;47.428;9.892;2022-08-19T15:06:24;16.30;99.90
58161;DHT22;49345;47.428;9.892;2022-08-19T15:08:49;16.30;99.90
58161;DHT22;49345;47.428;9.892;2022-08-19T15:11:17;16.30;99.90
58161;DHT22;49345;47.428;9.892;2022-08-19T15:13:46;16.30;99.90
58161;DHT22;49345;47.428;9.892;2022-08-19T15:16:12;16.30;99.90
58161;DHT22;49345;47.428;9.892;2022-08-19T15:18:39;16.30;99.90
58161;DHT22;49345;47.428;9.892;2022-08-19T15:21:09;16.30;99.90
58161;DHT22;49345;47.428;9.892;2022-08-19T15:23:35;16.30;99.90
58161;DHT22;49345;47.428;9.892;2022-08-19T15:26:01;16.30;99.90
58161;DHT22;49345;47.428;9.892;2022-08-19T15:28:27;16.40;99.90
58161;DHT22;49345;47.428;9.892;2022-08-19T15:30:53;16.30;99.90
58161;DHT22;49345;47.428;9.892;2022-08-19T15:33:18;16.20;99.90
58161;DHT22;49345;47.428;9.892;2022-08-19T15:35:45;16.10;99.90
58161;DHT22;49345;47.428;9.892;2022-08-19T15:38:12;16.10;99.90
58161;DHT22;49345;47.428;9.892;2022-08-19T15:40:38;16.10;99.90
58161;DHT22;49345;47.428;9.892;2022-08-19T15:43:03;16.10;99.90
58161;DHT22;49345;47.428;9.892;2022-08-19T15:45:29;16.20;99.90